createdAt,value
2023-08-12T04:42:19.168Z,100759.09
2023-08-12T04:45:21.671Z,100917.00
2023-08-12T04:48:24.202Z,100970.31
2023-08-12T04:51:26.764Z,101000.38
2023-08-12T04:54:29.292Z,101003.16
2023-08-12T05:33:30.878Z,101011.03
2023-08-12T05:34:21.068Z,101011.47
2023-08-12T05:37:23.582Z,101002.94
2023-08-12T05:40:26.176Z,101003.53
2023-08-12T05:43:28.931Z,101008.66
2023-08-12T05:46:31.731Z,100992.97
2023-08-12T05:49:35.579Z,100968.47
2023-08-12T05:52:38.209Z,100955.56
2023-08-12T05:55:40.778Z,100946.38
2023-08-12T05:58:43.391Z,100949.06
2023-08-12T06:01:45.981Z,100933.72
2023-08-12T06:04:50.049Z,100930.19
2023-08-12T06:07:52.659Z,100929.47
2023-08-12T06:10:56.280Z,100939.75
2023-08-12T06:13:58.863Z,100949.22
2023-08-12T06:17:01.779Z,100947.50
2023-08-12T06:20:06.522Z,100939.00
2023-08-12T06:23:09.017Z,100927.13
2023-08-12T06:26:11.647Z,100930.59
2023-08-12T06:29:14.157Z,100929.91
2023-08-12T06:32:16.672Z,100929.94
2023-08-12T06:35:21.513Z,100930.38
2023-08-12T06:38:24.017Z,100937.03
2023-08-12T06:41:26.553Z,100940.94
2023-08-12T06:44:29.184Z,100955.22
2023-08-12T06:47:31.902Z,100950.91
2023-08-12T06:50:36.026Z,100962.50
2023-08-12T06:53:39.163Z,100955.13
2023-08-12T06:56:41.758Z,100954.03
2023-08-12T06:59:45.809Z,100954.28
2023-08-12T07:02:48.379Z,100936.41
2023-08-12T07:05:52.488Z,100935.06
2023-08-12T07:08:55.591Z,100928.41
2023-08-12T07:11:58.458Z,100928.25
2023-08-12T07:15:01.053Z,100916.75
2023-08-12T07:18:06.518Z,100916.31
2023-08-12T07:21:10.766Z,100915.22
2023-08-12T07:24:13.666Z,100916.75
2023-08-12T07:27:16.222Z,100921.94
2023-08-12T07:30:18.970Z,100922.16
2023-08-12T07:33:21.920Z,100927.03
2023-08-12T07:36:25.998Z,100935.56
2023-08-12T07:39:28.568Z,100921.34
2023-08-12T07:42:31.070Z,100919.41
2023-08-12T07:45:33.696Z,100925.47
2023-08-12T07:48:36.267Z,100932.00
2023-08-12T07:51:40.077Z,100931.25
2023-08-12T07:54:42.599Z,100922.59
2023-08-12T07:57:46.544Z,100916.75
2023-08-12T08:00:49.104Z,100909.50
2023-08-12T08:03:51.873Z,100913.69
2023-08-12T08:06:56.354Z,100914.78
2023-08-12T08:09:58.857Z,100907.84
2023-08-12T08:13:01.417Z,100910.75
2023-08-12T08:16:04.106Z,100905.03
2023-08-12T08:19:06.859Z,100893.13
2023-08-12T08:22:13.901Z,100889.63
2023-08-12T08:25:16.917Z,100895.00
2023-08-12T08:28:19.595Z,100894.00
2023-08-12T08:31:22.107Z,100886.06
2023-08-12T08:34:24.700Z,100870.88
2023-08-12T08:37:28.532Z,100859.00
2023-08-12T08:40:31.120Z,100848.34
2023-08-12T08:43:37.259Z,100848.75
2023-08-12T08:46:39.893Z,100855.31
2023-08-12T08:49:43.869Z,100856.84
2023-08-12T08:52:48.313Z,100851.75
2023-08-12T08:55:51.438Z,100858.03
2023-08-12T08:58:54.723Z,100863.25
2023-08-12T09:01:59.992Z,100858.31
2023-08-12T09:05:04.003Z,100858.91
2023-08-12T09:08:12.036Z,100845.53
2023-08-12T09:11:16.470Z,100859.97
2023-08-12T09:14:19.765Z,100861.13
2023-08-12T09:17:22.302Z,100857.72
2023-08-12T09:20:25.110Z,100858.75
2023-08-12T09:23:29.518Z,100858.75
2023-08-12T09:26:32.121Z,100854.94
2023-08-12T09:29:36.879Z,100847.03
2023-08-12T09:32:39.756Z,100845.41
2023-08-12T09:35:45.845Z,100832.63
2023-08-12T09:38:49.840Z,100811.78
2023-08-12T09:41:53.406Z,100808.75
2023-08-12T09:44:55.906Z,100794.34
2023-08-12T09:47:59.820Z,100787.44
2023-08-12T09:51:02.778Z,100783.38
2023-08-12T09:54:06.820Z,100771.91
2023-08-12T09:57:10.363Z,100768.69
2023-08-12T10:00:17.914Z,100760.75
2023-08-12T10:03:22.468Z,100776.66
2023-08-12T10:06:25.478Z,100783.06
2023-08-12T10:09:29.352Z,100790.50
2023-08-12T10:12:31.963Z,100806.28
2023-08-12T10:15:34.775Z,100816.09
2023-08-12T10:18:38.987Z,100811.94
2023-08-12T10:21:41.963Z,100808.28
2023-08-12T10:24:47.799Z,100823.84
2023-08-12T10:27:50.977Z,100794.00
2023-08-12T10:30:54.044Z,100783.03
2023-08-12T10:33:56.854Z,100773.56
2023-08-12T10:37:04.339Z,100767.81
2023-08-12T10:40:24.470Z,100757.03
2023-08-12T10:43:28.302Z,100741.97
2023-08-12T10:46:33.426Z,100747.06
2023-08-12T10:49:40.566Z,100752.81
2023-08-12T10:52:45.503Z,100747.75
2023-08-12T10:55:50.664Z,100745.53
2023-08-12T10:58:53.217Z,100748.22
2023-08-12T11:01:55.862Z,100747.75
2023-08-12T11:05:00.070Z,100738.97
2023-08-12T11:08:04.745Z,100732.88
2023-08-12T11:11:21.473Z,100736.09
2023-08-12T11:14:25.932Z,100731.66
2023-08-12T11:17:36.713Z,100730.06
2023-08-12T11:20:40.056Z,100721.91
2023-08-12T11:23:42.678Z,100727.19
2023-08-12T11:26:48.096Z,100717.56
2023-08-12T11:29:51.446Z,100730.28
2023-08-12T11:32:55.756Z,100716.06
2023-08-12T11:35:58.861Z,100720.13
2023-08-12T11:39:01.403Z,100713.09
2023-08-12T11:42:06.021Z,100712.94
2023-08-12T11:45:09.829Z,100706.88
2023-08-12T11:48:12.421Z,100708.59
2023-08-12T11:51:15.986Z,100702.94
2023-08-12T11:54:19.483Z,100706.53
2023-08-12T11:57:24.560Z,100706.16
2023-08-12T12:00:27.401Z,100700.34
2023-08-12T12:03:30.439Z,100704.03
2023-08-12T12:06:33.873Z,100704.53
2023-08-12T12:09:36.441Z,100706.88
2023-08-12T12:12:40.328Z,100723.19
2023-08-12T12:15:43.981Z,100734.97
2023-08-12T12:18:46.560Z,100726.34
2023-08-12T12:21:50.704Z,100728.88
2023-08-12T12:24:53.318Z,100713.75
2023-08-12T12:27:57.181Z,100699.19
2023-08-12T12:30:59.780Z,100693.72
2023-08-12T12:34:02.496Z,100692.34
2023-08-12T12:37:05.187Z,100699.66
2023-08-12T12:40:09.236Z,100705.81
2023-08-12T12:43:13.076Z,100716.19
2023-08-12T12:46:16.881Z,100707.22
2023-08-12T12:49:19.435Z,100712.13
2023-08-12T12:52:21.992Z,100717.06
2023-08-12T12:55:24.536Z,100706.94
2023-08-12T12:58:28.441Z,100695.81
2023-08-12T13:01:31.035Z,100688.53
2023-08-12T13:04:33.685Z,100692.59
2023-08-12T13:07:36.302Z,100687.25
2023-08-12T13:10:39.057Z,100684.69
2023-08-12T13:13:43.018Z,100671.69
2023-08-12T13:16:45.861Z,100660.19
2023-08-12T13:19:49.071Z,100640.94
2023-08-12T13:22:51.613Z,100630.97
2023-08-12T13:25:54.210Z,100601.50
2023-08-12T13:28:58.070Z,100576.06
2023-08-12T13:32:00.622Z,100569.25
2023-08-12T13:35:03.353Z,100564.34
2023-08-12T13:38:06.184Z,100571.91
2023-08-12T13:41:08.797Z,100581.03
2023-08-12T13:44:12.648Z,100576.38
2023-08-12T13:47:15.370Z,100569.59
2023-08-12T13:50:18.232Z,100548.28
2023-08-12T13:53:20.874Z,100543.16
2023-08-12T13:56:23.497Z,100532.53
2023-08-12T13:59:27.396Z,100538.38
2023-08-12T14:02:30.852Z,100547.50
2023-08-12T14:05:33.432Z,100571.84
2023-08-12T14:08:35.975Z,100597.22
2023-08-12T14:11:38.544Z,100588.84
2023-08-12T14:14:42.392Z,100575.28
2023-08-12T14:17:44.922Z,100575.06
2023-08-12T14:20:47.445Z,100565.84
2023-08-12T14:23:50.002Z,100568.56
2023-08-12T14:26:52.558Z,100559.50
2023-08-12T14:29:56.474Z,100570.28
2023-08-12T14:33:00.106Z,100562.75
2023-08-12T14:36:02.655Z,100560.34
2023-08-12T14:39:05.201Z,100558.34
2023-08-12T14:42:09.709Z,100558.13
2023-08-12T14:45:14.007Z,100553.53
2023-08-12T14:48:18.045Z,100553.09
2023-08-12T14:51:20.581Z,100546.88
2023-08-12T14:54:23.295Z,100540.44
2023-08-12T14:57:25.940Z,100536.78
2023-08-12T15:00:30.406Z,100530.16
2023-08-12T15:03:33.218Z,100533.34
2023-08-12T15:06:35.894Z,100535.16
2023-08-12T15:09:38.669Z,100541.53
2023-08-12T15:12:41.228Z,100551.19
2023-08-12T15:15:48.736Z,100543.34
2023-08-12T15:18:51.300Z,100537.16
2023-08-12T15:21:53.887Z,100538.34
2023-08-12T15:24:56.621Z,100540.25
2023-08-12T15:27:59.574Z,100540.72
2023-08-12T15:31:03.665Z,100539.69
2023-08-12T15:34:06.292Z,100537.78
2023-08-12T15:37:08.801Z,100539.84
2023-08-12T15:40:14.283Z,100541.47
2023-08-12T15:43:16.795Z,100534.28
2023-08-12T15:46:20.641Z,100535.03
2023-08-12T15:49:23.889Z,100532.03
2023-08-12T15:52:27.504Z,100526.44
2023-08-12T15:55:30.052Z,100525.00
2023-08-12T15:58:32.729Z,100522.84
2023-08-12T16:01:37.537Z,100522.22
2023-08-12T16:04:40.191Z,100516.31
2023-08-12T16:07:42.717Z,100515.81
2023-08-12T16:10:45.472Z,100512.00
2023-08-12T16:13:47.964Z,100515.19
2023-08-12T16:16:52.227Z,100507.22
2023-08-12T16:19:55.073Z,100495.91
2023-08-12T16:22:57.650Z,100501.31
2023-08-12T16:26:00.456Z,100489.94
2023-08-12T16:29:03.424Z,100487.94
2023-08-12T16:32:09.830Z,100480.78
2023-08-12T16:35:12.477Z,100473.69
2023-08-12T16:38:15.170Z,100462.47
2023-08-12T16:41:18.621Z,100455.75
2023-08-12T16:44:21.339Z,100451.75
2023-08-12T16:47:25.603Z,100443.72
2023-08-12T16:50:28.190Z,100432.03
2023-08-12T16:53:30.871Z,100427.53
2023-08-12T16:56:33.370Z,100435.47
2023-08-12T16:59:35.961Z,100413.03
2023-08-12T17:02:39.969Z,100420.78
2023-08-12T17:05:42.497Z,100418.81
2023-08-12T17:08:45.103Z,100419.34
2023-08-12T17:11:47.765Z,100425.84
2023-08-12T17:14:50.372Z,100420.50
2023-08-12T17:17:54.994Z,100423.63
2023-08-12T17:20:57.599Z,100427.13
2023-08-12T17:24:00.187Z,100428.91
2023-08-12T17:27:02.922Z,100425.97
2023-08-12T17:30:06.675Z,100430.38
